createdAt,value
2018-09-01T00:00:13.792Z,88.24
2018-09-01T00:02:42.667Z,88.12
2018-09-01T00:05:11.192Z,86.68
2018-09-01T00:07:39.773Z,85.78
2018-09-01T00:10:08.316Z,86.33
2018-09-01T00:12:36.880Z,86.97
2018-09-01T00:15:10.512Z,88.01
2018-09-01T00:17:39.437Z,89.56
2018-09-01T00:20:07.965Z,90.59
2018-09-01T00:22:36.509Z,92.25
2018-09-01T00:25:05.081Z,93.00
2018-09-01T00:27:33.623Z,91.87
2018-09-01T00:30:02.194Z,90.46
2018-09-01T00:32:31.035Z,90.12
2018-09-01T00:34:59.537Z,88.91
2018-09-01T00:37:34.020Z,89.13
2018-09-01T00:40:02.513Z,90.42
2018-09-01T00:42:31.359Z,92.14
2018-09-01T00:44:59.964Z,93.49
2018-09-01T00:47:28.794Z,91.80
2018-09-01T00:49:57.388Z,93.21
2018-09-01T00:52:25.942Z,93.42
2018-09-01T00:54:54.473Z,92.75
2018-09-01T00:57:22.969Z,92.23
2018-09-01T00:59:51.792Z,90.93
2018-09-01T01:02:20.523Z,90.17
2018-09-01T01:04:49.108Z,89.84
2018-09-01T01:07:17.636Z,89.17
2018-09-01T01:09:46.529Z,90.45
2018-09-01T01:12:15.072Z,91.55
2018-09-01T01:14:50.140Z,91.65
2018-09-01T01:17:18.656Z,92.46
2018-09-01T01:19:47.215Z,92.14
2018-09-01T01:22:15.769Z,92.46
2018-09-01T01:24:44.394Z,91.78
2018-09-01T01:27:12.917Z,91.83
2018-09-01T01:29:41.458Z,91.46
2018-09-01T01:32:09.976Z,89.85
2018-09-01T01:34:38.559Z,89.92
2018-09-01T01:37:07.105Z,90.77
2018-09-01T01:39:35.656Z,90.03
2018-09-01T01:42:04.203Z,90.84
2018-09-01T01:44:32.796Z,92.43
2018-09-01T01:47:01.326Z,92.85
2018-09-01T01:49:29.880Z,93.18
2018-09-01T01:51:59.152Z,92.53
2018-09-01T01:54:27.717Z,93.70
2018-09-01T01:56:56.240Z,93.42
2018-09-01T01:59:24.824Z,94.01
2018-09-01T02:01:53.356Z,93.09
2018-09-01T02:04:21.913Z,94.80
2018-09-01T02:06:50.445Z,95.79
2018-09-01T02:09:19.005Z,96.41
2018-09-01T02:11:47.533Z,96.17
2018-09-01T02:14:16.093Z,93.57
2018-09-01T02:16:44.629Z,92.04
2018-09-01T02:19:13.185Z,91.81
2018-09-01T02:21:41.737Z,91.25
2018-09-01T02:24:10.359Z,90.93
2018-09-01T02:26:39.044Z,92.02
2018-09-01T02:29:07.952Z,93.62
2018-09-01T02:31:36.516Z,95.49
2018-09-01T02:34:05.100Z,93.89
2018-09-01T02:36:33.656Z,91.02
2018-09-01T02:39:02.173Z,93.66
2018-09-01T02:41:30.712Z,94.93
2018-09-01T02:43:59.265Z,95.85
2018-09-01T02:46:27.813Z,96.35
2018-09-01T02:48:56.322Z,95.48
2018-09-01T02:51:24.900Z,95.94
2018-09-01T02:53:53.449Z,94.76
2018-09-01T02:56:21.971Z,92.93
2018-09-01T02:58:50.537Z,94.23
2018-09-01T03:01:24.449Z,94.20
2018-09-01T03:03:52.977Z,95.42
2018-09-01T03:06:21.555Z,97.78
2018-09-01T03:08:50.100Z,93.53
2018-09-01T03:11:18.724Z,94.86
2018-09-01T03:13:47.300Z,98.08
2018-09-01T03:16:15.857Z,94.75
2018-09-01T03:18:44.408Z,92.86
2018-09-01T03:21:12.972Z,92.47
2018-09-01T03:23:41.504Z,93.97
2018-09-01T03:26:10.064Z,91.69
2018-09-01T03:28:38.908Z,94.53
2018-09-01T03:31:07.550Z,95.75
2018-09-01T03:33:36.091Z,94.10
2018-09-01T03:36:04.667Z,94.49
2018-09-01T03:38:33.216Z,92.59
2018-09-01T03:41:01.790Z,92.69
2018-09-01T03:43:30.332Z,93.74
2018-09-01T03:46:03.981Z,94.45
2018-09-01T03:48:32.933Z,91.50
2018-09-01T03:51:01.554Z,91.04
2018-09-01T03:53:30.105Z,92.61
2018-09-01T03:55:59.643Z,90.69
2018-09-01T03:58:28.256Z,93.26
2018-09-01T04:00:56.891Z,95.34
2018-09-01T04:03:25.429Z,94.99
2018-09-01T04:05:53.993Z,92.92
2018-09-01T04:08:22.552Z,93.04
2018-09-01T04:10:51.143Z,91.21
2018-09-01T04:13:19.672Z,93.18
2018-09-01T04:15:48.265Z,92.61
2018-09-01T04:18:16.848Z,94.55
2018-09-01T04:20:45.525Z,94.34
2018-09-01T04:23:14.110Z,95.87
2018-09-01T04:25:42.695Z,93.43
2018-09-01T04:28:11.241Z,93.36
2018-09-01T04:30:39.931Z,92.31
2018-09-01T04:33:08.460Z,95.36
2018-09-01T04:35:37.296Z,95.24
2018-09-01T04:38:05.901Z,93.33
2018-09-01T04:40:34.522Z,93.77
2018-09-01T04:43:03.089Z,97.25
2018-09-01T04:45:31.636Z,97.11
2018-09-01T04:48:00.200Z,98.02
2018-09-01T04:50:29.809Z,94.92
2018-09-01T04:52:58.380Z,92.83
2018-09-01T04:55:26.910Z,92.38
2018-09-01T04:57:55.481Z,94.35
2018-09-01T05:00:24.517Z,96.68
2018-09-01T05:02:54.152Z,96.63
2018-09-01T05:05:22.689Z,95.40
2018-09-01T05:07:51.246Z,95.34
2018-09-01T05:10:20.069Z,96.17
2018-09-01T05:12:49.518Z,95.19
2018-09-01T05:15:18.048Z,94.50
2018-09-01T05:17:46.636Z,94.38
2018-09-01T05:20:17.647Z,92.90
2018-09-01T05:22:46.379Z,91.42
2018-09-01T05:25:15.153Z,92.03
2018-09-01T05:27:43.809Z,91.31
2018-09-01T05:30:12.308Z,90.65
2018-09-01T05:32:40.865Z,92.27
2018-09-01T05:35:09.444Z,92.20
2018-09-01T05:37:38.024Z,94.85
2018-09-01T05:40:07.481Z,94.83
2018-09-01T05:42:36.076Z,94.42
2018-09-01T05:45:04.644Z,92.58
2018-09-01T05:47:33.448Z,91.38
2018-09-01T05:50:01.981Z,91.47
2018-09-01T05:52:30.936Z,91.65
2018-09-01T05:55:02.058Z,92.51
2018-09-01T05:57:31.659Z,93.69
2018-09-01T06:00:00.465Z,95.35
2018-09-01T06:02:30.287Z,96.94
2018-09-01T06:04:59.560Z,96.35
2018-09-01T06:07:28.461Z,95.53
2018-09-01T06:09:57.253Z,94.88
2018-09-01T06:12:25.879Z,94.93
2018-09-01T06:14:54.420Z,94.35
2018-09-01T06:17:23.023Z,94.32
2018-09-01T06:19:51.569Z,93.68
2018-09-01T06:22:20.128Z,91.32
2018-09-01T06:24:49.865Z,91.42
2018-09-01T06:27:24.200Z,92.27
2018-09-01T06:29:52.765Z,91.99
2018-09-01T06:32:21.409Z,91.51
2018-09-01T06:34:49.953Z,89.53
2018-09-01T06:37:18.492Z,87.46
2018-09-01T06:39:47.059Z,86.98
2018-09-01T06:42:15.605Z,86.57
2018-09-01T06:44:44.167Z,85.39
2018-09-01T06:47:12.700Z,83.40
2018-09-01T06:49:41.256Z,82.63
2018-09-01T06:52:09.852Z,83.81
2018-09-01T06:54:38.524Z,82.35
2018-09-01T06:57:07.063Z,81.60
2018-09-01T06:59:35.664Z,81.80
2018-09-01T07:02:04.308Z,81.49
2018-09-01T07:04:32.862Z,81.66
2018-09-01T07:07:01.429Z,81.46
2018-09-01T07:09:30.873Z,81.39
2018-09-01T07:11:59.755Z,80.46
2018-09-01T07:14:28.329Z,79.66
2018-09-01T07:17:00.308Z,77.75
2018-09-01T07:19:29.652Z,77.41
2018-09-01T07:21:58.586Z,75.71
2018-09-01T07:24:27.641Z,75.93
2018-09-01T07:26:57.153Z,75.60
2018-09-01T07:29:28.679Z,74.87
2018-09-01T07:31:57.937Z,74.64
2018-09-01T07:34:28.924Z,74.43
2018-09-01T07:36:57.799Z,74.92
2018-09-01T07:39:26.722Z,75.42
2018-09-01T07:42:02.263Z,76.50
2018-09-01T07:44:31.153Z,76.53
2018-09-01T07:46:59.728Z,75.19
2018-09-01T07:49:34.490Z,73.82
2018-09-01T07:52:03.308Z,74.03
2018-09-01T07:54:31.924Z,74.07
2018-09-01T07:57:01.324Z,73.95
2018-09-01T07:59:29.937Z,73.99
2018-09-01T08:01:58.810Z,73.81
2018-09-01T08:04:27.420Z,71.81
2018-09-01T08:06:55.951Z,75.41
2018-09-01T08:09:24.544Z,71.22
2018-09-01T08:11:55.157Z,71.75
2018-09-01T08:14:23.762Z,71.88
2018-09-01T08:16:52.998Z,66.48
2018-09-01T08:19:22.410Z,64.90
2018-09-01T08:21:50.936Z,63.02
2018-09-01T08:24:20.043Z,65.35
2018-09-01T08:26:48.573Z,63.51
2018-09-01T08:29:23.444Z,61.75
2018-09-01T08:31:51.956Z,60.59
2018-09-01T08:34:20.834Z,60.24
2018-09-01T08:36:49.340Z,59.92
2018-09-01T08:39:18.117Z,60.49
2018-09-01T08:41:47.072Z,57.27
2018-09-01T08:44:16.417Z,56.37
2018-09-01T08:46:47.332Z,57.42
2018-09-01T08:49:17.309Z,55.74
2018-09-01T08:51:48.818Z,56.22
2018-09-01T08:54:25.426Z,54.70
2018-09-01T08:56:54.173Z,54.99
2018-09-01T08:59:22.740Z,53.58
2018-09-01T09:01:51.314Z,54.53
2018-09-01T09:04:19.868Z,54.11
2018-09-01T09:06:48.457Z,53.68
2018-09-01T09:09:16.990Z,53.68
2018-09-01T09:11:54.844Z,53.89
2018-09-01T09:14:23.469Z,53.41
2018-09-01T09:16:52.588Z,52.73
2018-09-01T09:19:21.143Z,52.48
2018-09-01T09:21:49.699Z,50.99
2018-09-01T09:24:19.463Z,53.07
2018-09-01T09:26:48.069Z,49.67
2018-09-01T09:29:16.913Z,51.68
2018-09-01T09:31:45.804Z,49.34
2018-09-01T09:34:15.237Z,50.01
2018-09-01T09:36:43.858Z,48.88
2018-09-01T09:39:12.373Z,49.45
2018-09-01T09:41:41.923Z,48.25
2018-09-01T09:44:13.464Z,50.03
2018-09-01T09:46:42.010Z,48.80
2018-09-01T09:49:10.734Z,46.38
2018-09-01T09:51:39.384Z,46.82
2018-09-01T09:54:08.382Z,47.03
2018-09-01T09:56:36.976Z,47.42
2018-09-01T09:59:05.897Z,47.17
2018-09-01T10:01:41.597Z,45.94
2018-09-01T10:04:10.969Z,46.34
2018-09-01T10:06:40.853Z,48.40
2018-09-01T10:09:17.610Z,45.65
2018-09-01T10:11:46.821Z,46.93
2018-09-01T10:14:16.396Z,46.71
2018-09-01T10:16:45.762Z,49.04
2018-09-01T10:19:14.570Z,45.53
2018-09-01T10:21:43.695Z,45.09
2018-09-01T10:24:13.439Z,45.69
2018-09-01T10:26:42.678Z,46.17
2018-09-01T10:29:12.082Z,45.96
2018-09-01T10:31:41.402Z,44.64
2018-09-01T10:34:09.973Z,44.42
2018-09-01T10:36:38.552Z,43.94
2018-09-01T10:39:08.833Z,44.11
2018-09-01T10:41:37.528Z,43.11
2018-09-01T10:44:06.645Z,43.66
2018-09-01T10:46:35.271Z,44.05
2018-09-01T10:49:03.890Z,42.77
2018-09-01T10:51:32.453Z,43.07
2018-09-01T10:54:01.032Z,43.57
2018-09-01T10:56:29.672Z,42.80
2018-09-01T10:58:58.862Z,42.65
2018-09-01T11:01:27.490Z,42.49
2018-09-01T11:03:58.019Z,42.76
2018-09-01T11:06:26.634Z,40.72
2018-09-01T11:08:55.489Z,42.61
2018-09-01T11:11:24.278Z,41.60
2018-09-01T11:13:52.850Z,41.60
2018-09-01T11:16:21.423Z,42.11
2018-09-01T11:18:50.354Z,44.64
2018-09-01T11:21:19.061Z,42.71
2018-09-01T11:23:47.610Z,42.21
2018-09-01T11:26:16.253Z,43.32
2018-09-01T11:28:48.003Z,43.07
2018-09-01T11:31:16.660Z,42.54
2018-09-01T11:33:45.313Z,43.38
2018-09-01T11:36:13.857Z,42.56
2018-09-01T11:38:42.463Z,44.26
2018-09-01T11:41:11.092Z,43.32
2018-09-01T11:43:40.102Z,43.59
2018-09-01T11:46:08.842Z,43.68
2018-09-01T11:48:37.418Z,44.85
2018-09-01T11:51:06.553Z,44.38
2018-09-01T11:53:35.223Z,41.37
2018-09-01T11:56:04.347Z,41.44
2018-09-01T11:58:32.982Z,41.62
2018-09-01T12:01:01.706Z,41.71
2018-09-01T12:03:30.290Z,40.14
2018-09-01T12:05:58.811Z,43.46
2018-09-01T12:08:27.356Z,40.77
2018-09-01T12:10:55.947Z,40.93
2018-09-01T12:13:24.501Z,41.32
2018-09-01T12:15:53.119Z,41.39
2018-09-01T12:18:21.640Z,42.36
2018-09-01T12:20:50.152Z,43.34
2018-09-01T12:23:18.737Z,42.44
2018-09-01T12:25:47.248Z,41.88
2018-09-01T12:28:15.853Z,41.13
2018-09-01T12:30:44.324Z,42.26
2018-09-01T12:33:12.903Z,41.58
2018-09-01T12:35:41.417Z,40.54
2018-09-01T12:38:09.958Z,41.78
2018-09-01T12:40:38.478Z,41.90
2018-09-01T12:43:07.052Z,41.95
2018-09-01T12:45:35.577Z,43.24
2018-09-01T12:48:04.445Z,43.77
2018-09-01T12:50:32.965Z,40.61
2018-09-01T12:53:01.862Z,41.47
2018-09-01T12:55:30.396Z,39.46
2018-09-01T12:57:59.039Z,39.96
2018-09-01T13:00:27.613Z,39.50
2018-09-01T13:02:56.228Z,40.04
2018-09-01T13:05:24.760Z,39.91
2018-09-01T13:07:53.452Z,40.16
2018-09-01T13:10:21.962Z,41.98
2018-09-01T13:12:50.806Z,41.18
2018-09-01T13:15:19.398Z,41.06
2018-09-01T13:17:47.976Z,40.70
2018-09-01T13:20:16.525Z,42.03
2018-09-01T13:22:47.785Z,42.03
2018-09-01T13:25:16.399Z,40.28
2018-09-01T13:27:47.392Z,40.40
2018-09-01T13:30:17.062Z,41.10
2018-09-01T13:32:45.676Z,41.04
2018-09-01T13:35:14.244Z,41.56
2018-09-01T13:37:43.112Z,39.59
2018-09-01T13:40:11.772Z,39.88
2018-09-01T13:42:40.693Z,40.08
2018-09-01T13:45:09.272Z,39.55
2018-09-01T13:47:37.809Z,41.40
2018-09-01T13:50:06.409Z,40.92
2018-09-01T13:52:34.941Z,40.48
2018-09-01T13:59:56.713Z,42.80
2018-09-01T14:02:25.321Z,41.42
2018-09-01T14:04:54.883Z,41.56
2018-09-01T14:07:23.930Z,41.74
2018-09-01T14:09:53.285Z,40.30
2018-09-01T14:12:22.634Z,39.80
2018-09-01T14:14:57.145Z,39.59
2018-09-01T14:17:26.521Z,39.98
2018-09-01T14:19:55.113Z,39.42
2018-09-01T14:22:24.593Z,40.37
2018-09-01T14:24:53.192Z,41.21
2018-09-01T14:27:21.784Z,40.47
2018-09-01T14:29:50.685Z,41.50
2018-09-01T14:32:22.072Z,41.13
2018-09-01T14:34:52.249Z,41.64
2018-09-01T14:37:21.698Z,41.81
2018-09-01T14:39:52.867Z,43.30
2018-09-01T14:42:22.475Z,41.86
2018-09-01T14:44:51.128Z,41.36
2018-09-01T14:47:19.843Z,40.92
2018-09-01T14:49:49.229Z,40.61
2018-09-01T14:52:18.948Z,41.56
2018-09-01T14:54:47.588Z,41.71
2018-09-01T14:57:16.125Z,41.34
2018-09-01T14:59:46.231Z,41.55
2018-09-01T15:02:16.859Z,41.23
2018-09-01T15:04:45.637Z,41.56
2018-09-01T15:07:14.776Z,42.02
2018-09-01T15:09:44.906Z,42.08
2018-09-01T15:12:15.233Z,42.64
2018-09-01T15:14:47.260Z,42.42
2018-09-01T15:17:16.724Z,42.43
2018-09-01T15:19:45.526Z,42.51
2018-09-01T15:22:16.100Z,42.68
2018-09-01T15:24:45.750Z,41.33
2018-09-01T15:27:15.668Z,41.83
2018-09-01T15:29:45.099Z,41.11
2018-09-01T15:32:14.826Z,40.55
2018-09-01T15:34:43.495Z,40.28
2018-09-01T15:37:12.038Z,39.72
2018-09-01T15:39:41.345Z,38.83
2018-09-01T15:42:10.105Z,38.96
2018-09-01T15:44:40.028Z,40.38
2018-09-01T15:47:14.424Z,39.64
2018-09-01T15:49:44.463Z,39.72
2018-09-01T15:52:13.464Z,40.43
2018-09-01T15:54:42.716Z,38.94
2018-09-01T15:57:12.812Z,40.28
2018-09-01T15:59:41.794Z,39.69
2018-09-01T16:02:11.544Z,39.93
2018-09-01T16:04:42.115Z,39.10
2018-09-01T16:07:11.181Z,40.94
2018-09-01T16:09:40.232Z,39.51
2018-09-01T16:12:10.275Z,39.91
2018-09-01T16:14:39.076Z,40.85
2018-09-01T16:17:08.828Z,40.68
2018-09-01T16:19:38.593Z,40.75
2018-09-01T16:22:07.260Z,40.87
2018-09-01T16:24:37.806Z,40.69
2018-09-01T16:27:06.577Z,41.98
2018-09-01T16:29:46.230Z,41.70
2018-09-01T16:32:14.937Z,42.60
2018-09-01T16:34:44.622Z,42.46
2018-09-01T16:37:13.762Z,43.44
2018-09-01T16:39:42.337Z,44.55
2018-09-01T16:42:14.725Z,43.65
2018-09-01T16:44:43.525Z,43.90
2018-09-01T16:47:12.166Z,44.50
2018-09-01T16:49:40.928Z,44.02
2018-09-01T16:52:09.543Z,44.02
2018-09-01T16:54:38.076Z,43.07
2018-09-01T16:57:07.738Z,43.44
2018-09-01T16:59:37.035Z,43.86
2018-09-01T17:02:06.941Z,44.16
2018-09-01T17:04:35.882Z,44.68
2018-09-01T17:07:04.597Z,44.77
2018-09-01T17:09:34.034Z,45.63
2018-09-01T17:12:02.657Z,45.53
2018-09-01T17:14:32.023Z,45.28
2018-09-01T17:17:01.449Z,46.07
2018-09-01T17:19:30.677Z,45.91
2018-09-01T17:21:59.335Z,45.75
2018-09-01T17:24:27.905Z,46.33
2018-09-01T17:26:56.880Z,46.86
2018-09-01T17:29:25.402Z,46.89
2018-09-01T17:31:53.957Z,47.14
2018-09-01T17:34:23.416Z,48.16
2018-09-01T17:36:52.085Z,48.43
2018-09-01T17:39:20.809Z,48.77
2018-09-01T17:41:49.385Z,48.99
2018-09-01T17:44:18.141Z,49.20
2018-09-01T17:46:47.216Z,49.81
2018-09-01T17:49:15.743Z,51.89
2018-09-01T17:51:44.335Z,54.23
2018-09-01T17:54:13.886Z,56.40
2018-09-01T17:56:43.102Z,58.10
2018-09-01T17:59:12.205Z,56.98
2018-09-01T18:01:41.140Z,56.96
2018-09-01T18:04:10.178Z,56.54
2018-09-01T18:06:38.732Z,57.47
2018-09-01T18:09:07.433Z,59.99
2018-09-01T18:11:36.089Z,60.43
2018-09-01T18:14:04.692Z,59.50
2018-09-01T18:16:33.240Z,58.83
2018-09-01T18:19:01.781Z,57.63
2018-09-01T18:21:30.288Z,58.01
2018-09-01T18:23:58.923Z,59.28
2018-09-01T18:26:27.433Z,59.66
2018-09-01T18:28:55.973Z,59.73
2018-09-01T18:31:26.952Z,60.87
2018-09-01T18:33:55.501Z,61.83
2018-09-01T18:36:24.426Z,62.23
2018-09-01T18:38:53.124Z,62.56
2018-09-01T18:41:21.657Z,64.33
2018-09-01T18:43:50.228Z,64.69
2018-09-01T18:46:18.798Z,66.53
2018-09-01T18:48:47.361Z,65.86
2018-09-01T18:51:19.389Z,65.68
2018-09-01T18:53:48.082Z,66.17
2018-09-01T18:56:17.126Z,68.22
2018-09-01T18:58:45.706Z,70.01
2018-09-01T19:01:14.261Z,69.18
2018-09-01T19:03:42.902Z,68.94
2018-09-01T19:06:11.436Z,69.06
2018-09-01T19:08:39.980Z,71.56
2018-09-01T19:11:08.512Z,71.56
2018-09-01T19:13:37.101Z,72.30
2018-09-01T19:16:05.729Z,73.88
2018-09-01T19:18:34.279Z,74.74
2018-09-01T19:21:02.854Z,75.13
2018-09-01T19:23:31.367Z,76.08
2018-09-01T19:26:00.156Z,75.49
2018-09-01T19:28:28.754Z,75.08
2018-09-01T19:30:57.265Z,76.54
2018-09-01T19:33:25.827Z,76.87
2018-09-01T19:35:54.342Z,75.81
2018-09-01T19:38:22.884Z,75.57
2018-09-01T19:40:51.395Z,75.26
2018-09-01T19:43:19.940Z,75.73
2018-09-01T19:45:48.493Z,75.07
2018-09-01T19:48:17.862Z,73.96
2018-09-01T19:50:46.498Z,73.48
2018-09-01T19:53:15.053Z,72.32
2018-09-01T19:55:43.824Z,74.01
2018-09-01T19:58:12.668Z,75.16
2018-09-01T20:00:41.552Z,76.87
2018-09-01T20:03:10.126Z,77.38
2018-09-01T20:05:38.648Z,78.54
2018-09-01T20:08:07.226Z,79.44
2018-09-01T20:10:35.795Z,78.66
2018-09-01T20:13:06.239Z,77.91
2018-09-01T20:15:34.945Z,77.46
2018-09-01T20:18:03.644Z,77.87
2018-09-01T20:20:32.213Z,79.84
2018-09-01T20:23:00.780Z,79.84
2018-09-01T20:25:29.392Z,79.15
2018-09-01T20:27:57.945Z,80.20
2018-09-01T20:30:26.521Z,81.05
2018-09-01T20:32:55.049Z,82.79
2018-09-01T20:35:29.114Z,82.85
2018-09-01T20:37:57.700Z,83.87
2018-09-01T20:40:26.243Z,84.64
2018-09-01T20:42:59.221Z,83.11
2018-09-01T20:45:32.791Z,82.53
2018-09-01T20:48:02.966Z,80.54
2018-09-01T20:50:35.333Z,80.78
2018-09-01T20:53:13.212Z,81.22
2018-09-01T20:55:44.956Z,81.28
2018-09-01T20:58:17.250Z,83.10
2018-09-01T21:00:47.841Z,82.72
2018-09-01T21:03:18.917Z,82.88
2018-09-01T21:05:50.107Z,83.78
2018-09-01T21:08:21.563Z,83.72
2018-09-01T21:10:50.603Z,82.94
2018-09-01T21:13:19.987Z,82.90
2018-09-01T21:15:49.700Z,82.68
2018-09-01T21:18:21.195Z,83.43
2018-09-01T21:20:52.210Z,83.80
2018-09-01T21:23:24.160Z,85.18
2018-09-01T21:25:53.621Z,84.08
2018-09-01T21:28:25.016Z,83.46
2018-09-01T21:30:56.421Z,83.66
2018-09-01T21:33:29.278Z,83.69
2018-09-01T21:35:59.128Z,83.19
2018-09-01T21:38:33.077Z,83.13
2018-09-01T21:41:03.855Z,83.26
2018-09-01T21:43:33.418Z,83.19
2018-09-01T21:46:05.009Z,83.38
2018-09-01T21:48:35.821Z,83.73
2018-09-01T21:51:05.311Z,83.22
2018-09-01T21:53:39.355Z,83.90
2018-09-01T21:56:10.607Z,83.74
2018-09-01T21:58:48.791Z,83.52
2018-09-01T22:01:26.454Z,83.71
2018-09-01T22:03:59.856Z,84.21
2018-09-01T22:06:29.503Z,83.77
2018-09-01T22:12:12.152Z,84.72
2018-09-01T22:14:52.062Z,85.42
2018-09-01T22:17:22.904Z,84.07
2018-09-01T22:19:59.342Z,84.64
2018-09-01T22:22:30.145Z,85.36
2018-09-01T22:25:03.476Z,85.49
2018-09-01T22:27:36.667Z,85.32
2018-09-01T22:30:11.015Z,84.45
2018-09-01T22:32:41.989Z,84.42
2018-09-01T22:35:11.525Z,83.25
2018-09-01T22:37:44.484Z,85.35
2018-09-01T22:40:13.620Z,86.31
2018-09-01T22:42:43.578Z,86.52
2018-09-01T22:45:12.819Z,86.19
2018-09-01T22:47:43.689Z,86.81
2018-09-01T22:50:12.771Z,85.52
2018-09-01T22:52:42.237Z,85.61
2018-09-01T22:55:11.368Z,84.56
2018-09-01T22:57:41.876Z,85.07
2018-09-01T23:00:11.250Z,86.21
2018-09-01T23:02:40.893Z,85.93
2018-09-01T23:05:11.403Z,86.42
2018-09-01T23:07:39.955Z,87.48
2018-09-01T23:10:12.204Z,87.35
2018-09-01T23:12:41.498Z,87.06
2018-09-01T23:15:12.079Z,85.45
2018-09-01T23:17:41.796Z,88.76
2018-09-01T23:20:11.084Z,88.09
2018-09-01T23:22:40.463Z,88.79
2018-09-01T23:25:09.048Z,86.95
2018-09-01T23:27:39.178Z,87.24
2018-09-01T23:30:09.146Z,88.11
2018-09-01T23:32:39.825Z,86.85
2018-09-01T23:35:09.464Z,86.62
2018-09-01T23:37:39.607Z,86.11
2018-09-01T23:40:09.326Z,85.88
2018-09-01T23:42:39.284Z,85.71
2018-09-01T23:45:09.248Z,85.29
2018-09-01T23:47:40.023Z,87.22
2018-09-01T23:50:10.632Z,84.94
2018-09-01T23:52:39.884Z,85.82
2018-09-01T23:55:10.793Z,85.86
2018-09-01T23:57:40.281Z,85.79
